Time;durP1;ratioP1;P1;durP2;ratioP2;P2;SDS_P1;SDS_P2;PMS_P1;PMS_P2;Temp;Humidity;BMP_temperature;BMP_pressure;BME280_temperature;BME280_humidity;BME280_pressure;Samples;Min_cycle;Max_cycle;Signal;HPM_P1;HPM_P2
2021/05/30 00:00:11;;;;;;;1.20;1.00;;;9.10;99.90;;;;;;1974932;72;21185;-75
2021/05/30 00:02:37;;;;;;;1.35;0.90;;;9.10;99.90;;;;;;1972595;73;21029;-74
2021/05/30 00:05:04;;;;;;;0.93;0.82;;;9.10;99.90;;;;;;1972635;73;21400;-74
2021/05/30 00:07:30;;;;;;;3.70;1.10;;;9.10;99.90;;;;;;1972458;73;21532;-74
2021/05/30 00:09:56;;;;;;;1.52;1.05;;;9.10;99.90;;;;;;1972625;73;21535;-74
2021/05/30 00:12:22;;;;;;;1.42;1.15;;;9.00;99.90;;;;;;1972456;73;21563;-74
2021/05/30 00:14:48;;;;;;;1.80;0.98;;;9.00;99.90;;;;;;1972579;73;21113;-75
2021/05/30 00:17:15;;;;;;;0.90;0.90;;;9.00;99.90;;;;;;1975024;72;21067;-73
2021/05/30 00:19:41;;;;;;;1.17;0.93;;;9.00;99.90;;;;;;1972501;73;21529;-75
2021/05/30 00:22:07;;;;;;;1.10;1.00;;;8.90;99.90;;;;;;1972520;73;21491;-74
2021/05/30 00:24:33;;;;;;;0.80;0.80;;;8.90;99.90;;;;;;1972560;73;21068;-75
2021/05/30 00:26:59;;;;;;;1.98;0.98;;;8.90;99.90;;;;;;1972503;73;21133;-74
2021/05/30 00:29:25;;;;;;;1.17;1.00;;;8.90;99.90;;;;;;1972595;73;21059;-75
2021/05/30 00:31:52;;;;;;;1.20;1.05;;;8.90;99.90;;;;;;1972496;73;21247;-75
2021/05/30 00:34:18;;;;;;;3.83;0.98;;;8.90;99.90;;;;;;1972686;73;21107;-74
2021/05/30 00:36:44;;;;;;;1.98;1.30;;;8.80;99.90;;;;;;1972776;73;21083;-75
2021/05/30 00:39:10;;;;;;;1.17;0.80;;;8.80;99.90;;;;;;1972710;73;21059;-75
2021/05/30 00:41:36;;;;;;;1.27;0.95;;;8.70;99.90;;;;;;1972825;73;21062;-74
2021/05/30 00:44:02;;;;;;;2.08;1.30;;;8.80;99.90;;;;;;1972744;73;21142;-73
2021/05/30 00:46:30;;;;;;;0.85;0.85;;;8.80;99.90;;;;;;1972651;73;21523;-74
2021/05/30 00:48:56;;;;;;;1.12;1.00;;;8.80;99.90;;;;;;1972919;72;21097;-73
2021/05/30 00:51:22;;;;;;;1.10;1.00;;;8.70;99.90;;;;;;1974407;73;21130;-71
2021/05/30 00:53:48;;;;;;;1.27;1.00;;;8.70;99.90;;;;;;1974766;73;21056;-69
2021/05/30 00:56:15;;;;;;;1.55;1.20;;;8.70;99.90;;;;;;1973807;73;21173;-74
2021/05/30 00:58:41;;;;;;;0.90;0.90;;;8.60;99.90;;;;;;1972735;73;21110;-74
2021/05/30 01:01:07;;;;;;;3.00;1.12;;;8.60;99.90;;;;;;1972598;73;21124;-74
2021/05/30 01:03:33;;;;;;;2.85;1.17;;;8.50;99.90;;;;;;1972578;73;21059;-74
2021/05/30 01:06:00;;;;;;;5.15;1.50;;;8.60;99.90;;;;;;1972833;73;21080;-75
2021/05/30 01:08:27;;;;;;;0.80;0.80;;;8.50;99.90;;;;;;1972505;73;21206;-74
2021/05/30 01:10:53;;;;;;;2.08;1.22;;;8.50;99.90;;;;;;1972370;72;21129;-74
2021/05/30 01:13:19;;;;;;;4.55;1.22;;;8.40;99.90;;;;;;1972512;73;21132;-74
2021/05/30 01:15:45;;;;;;;4.90;1.17;;;8.40;99.90;;;;;;1972432;73;21030;-74
2021/05/30 01:18:11;;;;;;;1.85;1.27;;;8.30;99.90;;;;;;1972569;73;21181;-75
2021/05/30 01:20:38;;;;;;;1.85;1.22;;;8.30;99.90;;;;;;1974347;73;21147;-74
2021/05/30 01:23:04;;;;;;;3.30;1.00;;;8.20;99.90;;;;;;1976373;73;21147;-75
2021/05/30 01:25:30;;;;;;;1.87;1.10;;;8.20;99.90;;;;;;1973938;73;21138;-74
2021/05/30 01:27:56;;;;;;;0.98;0.98;;;8.20;99.90;;;;;;1976497;73;21098;-74
2021/05/30 01:30:23;;;;;;;2.15;1.00;;;8.10;99.90;;;;;;1976484;73;21103;-74
2021/05/30 01:32:49;;;;;;;1.12;1.02;;;8.10;99.90;;;;;;1976416;73;21013;-74
2021/05/30 01:35:16;;;;;;;4.35;1.10;;;8.00;99.90;;;;;;1975123;73;21420;-74
2021/05/30 01:37:42;;;;;;;1.70;1.22;;;7.90;99.90;;;;;;1972339;73;21106;-75
2021/05/30 01:40:08;;;;;;;1.00;0.90;;;7.90;99.90;;;;;;1972563;73;21096;-74
2021/05/30 01:42:34;;;;;;;1.57;1.20;;;8.00;99.90;;;;;;1972400;73;21062;-74
2021/05/30 01:45:00;;;;;;;1.10;1.00;;;8.10;99.90;;;;;;1972625;73;21098;-75
2021/05/30 01:47:26;;;;;;;1.20;1.05;;;8.10;99.90;;;;;;1972410;73;21128;-75
2021/05/30 01:49:52;;;;;;;3.58;1.37;;;8.00;99.90;;;;;;1972649;73;21084;-75
2021/05/30 01:52:18;;;;;;;1.30;1.20;;;8.00;99.90;;;;;;1972665;73;21059;-75
2021/05/30 01:54:48;;;;;;;2.33;1.55;;;8.00;99.90;;;;;;1972620;73;21067;-74
2021/05/30 01:57:12;;;;;;;2.42;1.40;;;8.00;99.90;;;;;;1973251;71;21189;-75
2021/05/30 01:59:38;;;;;;;2.15;1.50;;;8.00;99.90;;;;;;1972466;73;21136;-75
2021/05/30 02:02:05;;;;;;;1.10;1.10;;;7.90;99.90;;;;;;1972724;73;21129;-75
2021/05/30 02:04:31;;;;;;;1.25;1.15;;;7.90;99.90;;;;;;1972404;73;21545;-75
2021/05/30 02:06:57;;;;;;;1.37;1.27;;;7.90;99.90;;;;;;1972681;73;21136;-75
2021/05/30 02:09:23;;;;;;;1.45;1.35;;;7.90;99.90;;;;;;1972552;73;21116;-74
2021/05/30 02:11:49;;;;;;;1.25;1.15;;;7.90;99.90;;;;;;1972560;73;21092;-75
2021/05/30 02:14:15;;;;;;;3.52;1.80;;;7.80;99.90;;;;;;1973410;72;21140;-75
2021/05/30 02:16:42;;;;;;;1.82;1.35;;;7.80;99.90;;;;;;1972609;73;21153;-75
2021/05/30 02:19:08;;;;;;;1.35;1.25;;;7.80;99.90;;;;;;1972588;73;21136;-75
2021/05/30 02:21:34;;;;;;;2.80;1.42;;;7.70;99.90;;;;;;1972546;73;21181;-75
2021/05/30 02:24:00;;;;;;;1.30;1.20;;;7.70;99.90;;;;;;1972609;73;21059;-74
2021/05/30 02:26:26;;;;;;;1.40;1.30;;;7.70;99.90;;;;;;1972606;73;21151;-76
2021/05/30 02:28:52;;;;;;;1.32;1.20;;;7.70;99.90;;;;;;1972331;73;21062;-74
2021/05/30 02:31:18;;;;;;;1.57;1.22;;;7.70;99.90;;;;;;1972517;73;21141;-74
2021/05/30 02:33:44;;;;;;;1.52;1.27;;;7.60;99.90;;;;;;1972305;73;21140;-75
2021/05/30 02:36:11;;;;;;;4.90;1.90;;;7.60;99.90;;;;;;1972443;73;21433;-75
2021/05/30 02:38:37;;;;;;;1.90;1.10;;;7.60;99.90;;;;;;1972565;73;21443;-75
2021/05/30 02:41:03;;;;;;;1.27;1.20;;;7.50;99.90;;;;;;1973560;72;21563;-75
2021/05/30 02:43:29;;;;;;;1.98;1.40;;;7.50;99.90;;;;;;1972424;73;21483;-74
2021/05/30 02:45:55;;;;;;;1.17;1.07;;;7.50;99.90;;;;;;1972514;72;21133;-75
2021/05/30 02:48:21;;;;;;;1.32;1.22;;;7.40;99.90;;;;;;1972593;73;21181;-74
2021/05/30 02:50:58;;;;;;;3.15;1.52;;;7.40;99.90;;;;;;1972703;73;21080;-75
2021/05/30 02:53:15;;;;;;;2.85;1.40;;;7.40;99.90;;;;;;1975256;71;21079;-74
2021/05/30 02:55:41;;;;;;;1.82;1.27;;;7.40;99.90;;;;;;1972517;73;21081;-75
2021/05/30 02:58:07;;;;;;;1.50;1.40;;;7.30;99.90;;;;;;1972335;73;21144;-75
2021/05/30 03:00:34;;;;;;;7.12;1.55;;;7.30;99.90;;;;;;1972425;73;21055;-75
2021/05/30 03:03:00;;;;;;;1.65;1.22;;;7.20;99.90;;;;;;1972497;73;21059;-75
2021/05/30 03:05:26;;;;;;;1.25;1.17;;;7.20;99.90;;;;;;1972486;73;21120;-74
2021/05/30 03:07:52;;;;;;;1.55;1.40;;;7.20;99.90;;;;;;1972550;73;21107;-75
2021/05/30 03:10:18;;;;;;;1.60;1.50;;;7.10;99.90;;;;;;1972597;73;21153;-74
2021/05/30 03:12:44;;;;;;;1.52;1.37;;;7.20;99.90;;;;;;1972382;73;21144;-74
2021/05/30 03:15:10;;;;;;;1.37;1.27;;;7.10;99.90;;;;;;1972515;73;21099;-75
2021/05/30 03:17:36;;;;;;;1.85;1.42;;;7.10;99.90;;;;;;1972562;73;21479;-75
2021/05/30 03:20:02;;;;;;;2.52;1.50;;;7.10;99.90;;;;;;1972397;73;21568;-75
2021/05/30 03:22:29;;;;;;;1.65;1.55;;;7.10;99.90;;;;;;1972404;73;21400;-75
2021/05/30 03:24:55;;;;;;;1.70;1.60;;;7.10;99.90;;;;;;1972460;73;21055;-74
2021/05/30 03:27:21;;;;;;;2.58;1.60;;;7.00;99.90;;;;;;1972525;73;21129;-74
2021/05/30 03:29:47;;;;;;;8.65;1.80;;;7.00;99.90;;;;;;1972501;72;21067;-74
2021/05/30 03:32:14;;;;;;;1.70;1.37;;;7.10;99.90;;;;;;1972385;73;21491;-76
2021/05/30 03:34:40;;;;;;;3.33;2.00;;;7.00;99.90;;;;;;1972478;73;21121;-74
2021/05/30 03:37:06;;;;;;;8.58;2.00;;;7.00;99.90;;;;;;1972481;73;21054;-74
2021/05/30 03:39:35;;;;;;;1.98;1.45;;;7.10;99.90;;;;;;1972340;73;21161;-74
2021/05/30 03:42:08;;;;;;;3.05;1.72;;;7.10;99.90;;;;;;1972546;71;21149;-75
2021/05/30 03:44:28;;;;;;;1.65;1.55;;;7.10;99.90;;;;;;1974050;71;21083;-74
2021/05/30 03:46:54;;;;;;;1.57;1.47;;;7.10;99.90;;;;;;1972557;73;21091;-74
2021/05/30 03:49:20;;;;;;;2.35;1.65;;;7.20;99.90;;;;;;1972753;73;21028;-74
2021/05/30 03:51:46;;;;;;;1.75;1.42;;;7.20;99.90;;;;;;1972698;73;21091;-74
2021/05/30 03:54:12;;;;;;;5.00;1.75;;;7.20;99.90;;;;;;1972780;73;21102;-74
2021/05/30 03:56:39;;;;;;;2.27;1.52;;;7.10;99.90;;;;;;1972678;73;21059;-74
2021/05/30 03:59:05;;;;;;;4.22;1.80;;;7.20;99.90;;;;;;1972408;73;21136;-74
2021/05/30 04:01:31;;;;;;;2.17;1.80;;;7.20;99.90;;;;;;1972602;73;21152;-74
2021/05/30 04:03:57;;;;;;;1.82;1.37;;;7.10;99.90;;;;;;1972525;73;21124;-74
2021/05/30 04:06:23;;;;;;;1.52;1.42;;;7.20;99.90;;;;;;1972671;73;21145;-74
2021/05/30 04:08:49;;;;;;;2.52;1.30;;;7.10;99.90;;;;;;1972506;73;21028;-74
2021/05/30 04:11:15;;;;;;;2.35;1.52;;;7.20;99.90;;;;;;1972566;73;21059;-74
2021/05/30 04:13:41;;;;;;;1.82;1.70;;;7.20;99.90;;;;;;1972425;73;21090;-74
2021/05/30 04:16:08;;;;;;;4.92;1.87;;;7.20;99.90;;;;;;1972539;73;21092;-75
2021/05/30 04:18:34;;;;;;;2.72;1.75;;;7.20;99.90;;;;;;1972610;73;21031;-75
2021/05/30 04:21:00;;;;;;;3.40;1.70;;;7.20;99.90;;;;;;1972638;73;21055;-74
2021/05/30 04:23:26;;;;;;;2.17;1.92;;;7.20;99.90;;;;;;1972750;73;21066;-74
2021/05/30 04:25:52;;;;;;;2.45;1.65;;;7.20;99.90;;;;;;1972389;73;21218;-74
2021/05/30 04:28:18;;;;;;;3.40;1.95;;;7.30;99.90;;;;;;1972656;73;21062;-74
2021/05/30 04:30:44;;;;;;;1.95;1.52;;;7.30;99.90;;;;;;1972482;73;21063;-74
2021/05/30 04:33:10;;;;;;;2.87;1.57;;;7.30;99.90;;;;;;1972575;73;21079;-74
2021/05/30 04:35:37;;;;;;;2.42;1.60;;;7.30;99.90;;;;;;1972490;73;21479;-75
2021/05/30 04:38:04;;;;;;;5.85;1.80;;;7.30;99.90;;;;;;1972517;73;21461;-74
2021/05/30 04:40:30;;;;;;;1.55;1.45;;;7.40;99.90;;;;;;1972566;73;21051;-74
2021/05/30 04:42:56;;;;;;;2.67;1.35;;;7.30;99.90;;;;;;1972471;73;21132;-74
2021/05/30 04:45:22;;;;;;;2.65;1.72;;;7.40;99.90;;;;;;1972473;73;21205;-74
2021/05/30 04:47:48;;;;;;;1.40;1.30;;;7.50;99.90;;;;;;1972453;73;21062;-75
2021/05/30 04:50:14;;;;;;;1.42;1.32;;;7.50;99.90;;;;;;1972522;73;21024;-74
2021/05/30 04:52:40;;;;;;;2.00;1.70;;;7.50;99.90;;;;;;1972529;73;21475;-75
2021/05/30 04:55:06;;;;;;;2.58;1.60;;;7.60;99.90;;;;;;1972662;73;21584;-76
2021/05/30 04:57:33;;;;;;;2.62;1.75;;;7.70;99.90;;;;;;1972530;73;21567;-74
2021/05/30 04:59:59;;;;;;;3.17;1.75;;;7.70;99.90;;;;;;1972481;73;21539;-75
2021/05/30 05:02:25;;;;;;;2.45;2.00;;;7.80;99.90;;;;;;1972493;73;21054;-75
2021/05/30 05:04:51;;;;;;;3.12;2.10;;;7.90;99.90;;;;;;1972509;73;21055;-74
2021/05/30 05:07:17;;;;;;;1.87;1.72;;;7.90;99.90;;;;;;1972607;73;21088;-75
2021/05/30 05:09:43;;;;;;;2.52;2.00;;;8.00;99.90;;;;;;1972574;73;21091;-75
2021/05/30 05:12:09;;;;;;;2.17;1.90;;;8.00;99.90;;;;;;1972466;73;21054;-75
2021/05/30 05:14:35;;;;;;;2.30;1.95;;;8.10;99.90;;;;;;1974992;72;21063;-75
2021/05/30 05:17:02;;;;;;;4.10;2.42;;;8.10;99.90;;;;;;1972657;73;21027;-75
2021/05/30 05:19:28;;;;;;;3.87;2.37;;;8.30;99.90;;;;;;1972519;73;21160;-75
2021/05/30 05:21:54;;;;;;;2.58;2.20;;;8.70;99.90;;;;;;1972637;73;21165;-75
2021/05/30 05:24:20;;;;;;;8.20;2.10;;;9.70;99.90;;;;;;1973668;73;21036;-75
2021/05/30 05:26:46;;;;;;;2.87;1.87;;;11.50;99.90;;;;;;1978198;72;21174;-75
2021/05/30 05:29:12;;;;;;;7.85;2.65;;;13.00;99.90;;;;;;1976771;72;21126;-74
2021/05/30 05:31:38;;;;;;;5.40;2.52;;;13.70;99.90;;;;;;1975450;72;21096;-76
2021/05/30 05:34:04;;;;;;;3.33;1.90;;;13.80;99.90;;;;;;1973052;73;21075;-72
2021/05/30 05:36:31;;;;;;;4.12;1.95;;;13.60;99.90;;;;;;1973732;72;21490;-74
2021/05/30 05:38:57;;;;;;;2.92;1.75;;;13.50;99.90;;;;;;1972600;73;21579;-75
2021/05/30 05:41:23;;;;;;;5.87;1.90;;;13.20;99.90;;;;;;1972541;73;21519;-75
2021/05/30 05:43:49;;;;;;;2.27;1.80;;;13.40;99.90;;;;;;1972487;73;21487;-75
2021/05/30 05:46:15;;;;;;;2.45;1.30;;;14.40;99.90;;;;;;1972991;73;21563;-75
2021/05/30 05:48:41;;;;;;;6.42;1.65;;;15.60;99.90;;;;;;1973069;73;21088;-74
2021/05/30 05:51:07;;;;;;;4.53;1.30;;;16.90;99.90;;;;;;1973136;73;21113;-80
2021/05/30 05:53:33;;;;;;;2.72;1.60;;;17.30;99.90;;;;;;1973139;73;21128;-74
2021/05/30 05:55:59;;;;;;;2.58;1.55;;;18.00;99.90;;;;;;1973111;73;21132;-75
2021/05/30 05:58:26;;;;;;;1.65;1.30;;;19.30;99.90;;;;;;1973107;73;21028;-75
2021/05/30 06:00:52;;;;;;;2.95;1.37;;;19.70;99.90;;;;;;1973132;73;21059;-74
2021/05/30 06:03:18;;;;;;;4.20;1.75;;;20.50;99.90;;;;;;1973110;73;21027;-75
2021/05/30 06:05:44;;;;;;;1.67;1.40;;;20.80;99.90;;;;;;1973133;73;21132;-75
2021/05/30 06:08:10;;;;;;;2.17;1.50;;;20.40;99.90;;;;;;1973184;73;21084;-75
2021/05/30 06:10:36;;;;;;;2.77;1.32;;;20.30;99.90;;;;;;1973215;73;21080;-75
2021/05/30 06:13:03;;;;;;;2.17;1.47;;;20.80;99.90;;;;;;1973200;73;21168;-75
2021/05/30 06:15:29;;;;;;;2.25;1.30;;;20.20;99.90;;;;;;1973116;73;21519;-75
2021/05/30 06:17:57;;;;;;;2.90;1.40;;;21.00;99.90;;;;;;1973126;73;21054;-75
2021/05/30 06:20:23;;;;;;;1.42;1.25;;;21.60;99.90;;;;;;1973201;72;21060;-75
2021/05/30 06:22:49;;;;;;;2.10;1.40;;;21.80;99.90;;;;;;1973233;73;21153;-74
2021/05/30 06:25:15;;;;;;;1.85;1.17;;;21.10;99.90;;;;;;1972998;73;21067;-75
2021/05/30 06:27:41;;;;;;;1.90;1.00;;;21.50;99.90;;;;;;1973328;73;21178;-74
2021/05/30 06:30:07;;;;;;;2.27;1.20;;;21.40;99.90;;;;;;1973014;73;21012;-75
2021/05/30 06:32:34;;;;;;;2.00;1.30;;;21.70;99.90;;;;;;1973236;73;21087;-73
2021/05/30 06:35:00;;;;;;;1.95;1.22;;;21.90;99.90;;;;;;1973162;73;21035;-77
2021/05/30 06:37:26;;;;;;;2.35;1.15;;;22.00;99.90;;;;;;1973342;73;21511;-76
2021/05/30 06:39:52;;;;;;;2.95;1.12;;;22.60;99.00;;;;;;1973093;73;21475;-75
2021/05/30 06:42:18;;;;;;;1.50;1.20;;;22.20;99.90;;;;;;1973143;73;21497;-81
2021/05/30 06:44:44;;;;;;;1.67;1.15;;;22.30;99.90;;;;;;1973213;73;21560;-79
2021/05/30 06:47:10;;;;;;;0.98;0.93;;;22.60;99.00;;;;;;1973128;73;21533;-76
2021/05/30 06:49:36;;;;;;;2.27;0.93;;;22.80;99.30;;;;;;1973148;73;21128;-77
2021/05/30 06:52:03;;;;;;;4.42;1.30;;;22.80;98.70;;;;;;1973104;73;21090;-76
2021/05/30 06:54:29;;;;;;;1.17;1.07;;;20.40;97.70;;;;;;1973145;73;21067;-76
2021/05/30 06:56:55;;;;;;;1.30;0.95;;;20.00;99.90;;;;;;1973248;73;21080;-75
2021/05/30 06:59:21;;;;;;;1.27;1.02;;;19.60;99.60;;;;;;1973166;73;21095;-75
2021/05/30 07:01:47;;;;;;;1.50;1.05;;;20.20;99.90;;;;;;1973178;73;21145;-75
2021/05/30 07:04:13;;;;;;;0.93;0.82;;;21.20;99.90;;;;;;1973112;73;21059;-78
2021/05/30 07:06:40;;;;;;;0.95;0.80;;;21.80;99.60;;;;;;1973217;73;21157;-74
2021/05/30 07:09:06;;;;;;;3.17;1.07;;;20.20;98.10;;;;;;1972982;73;21051;-75
2021/05/30 07:11:33;;;;;;;1.77;0.82;;;18.50;99.90;;;;;;1973311;72;21135;-75
2021/05/30 07:13:59;;;;;;;1.62;0.90;;;18.90;99.90;;;;;;1973076;73;21020;-75
2021/05/30 07:16:25;;;;;;;0.72;0.72;;;19.20;99.90;;;;;;1973092;73;21120;-75
2021/05/30 07:18:51;;;;;;;2.98;0.80;;;19.90;99.90;;;;;;1973058;73;21051;-75
2021/05/30 07:21:17;;;;;;;1.82;0.70;;;20.30;95.60;;;;;;1973225;73;21153;-74
2021/05/30 07:23:44;;;;;;;2.45;0.90;;;19.60;97.30;;;;;;1973175;73;21080;-75
2021/05/30 07:26:10;;;;;;;1.85;0.80;;;19.80;95.80;;;;;;1973346;73;21068;-75
2021/05/30 07:28:36;;;;;;;1.35;0.70;;;20.00;94.00;;;;;;1973108;73;21047;-74
2021/05/30 07:31:02;;;;;;;1.47;0.90;;;20.20;94.70;;;;;;1973292;73;21088;-75
2021/05/30 07:33:28;;;;;;;0.60;0.60;;;19.60;93.30;;;;;;1973192;73;21085;-75
2021/05/30 07:35:54;;;;;;;0.80;0.70;;;19.00;92.20;;;;;;1973218;73;21154;-75
2021/05/30 07:38:20;;;;;;;1.67;0.70;;;19.10;93.60;;;;;;1973416;73;21076;-75
2021/05/30 07:40:46;;;;;;;1.62;0.80;;;19.40;93.80;;;;;;1973295;73;21138;-74
2021/05/30 07:43:13;;;;;;;3.90;0.90;;;19.30;93.70;;;;;;1973184;73;21162;-74
2021/05/30 07:45:39;;;;;;;1.75;0.60;;;19.50;92.30;;;;;;1973194;73;21079;-74
2021/05/30 07:48:05;;;;;;;1.20;0.80;;;19.70;91.30;;;;;;1973227;73;21606;-74
2021/05/30 07:50:31;;;;;;;6.03;0.65;;;19.80;91.30;;;;;;1973201;73;21452;-74
2021/05/30 07:52:57;;;;;;;1.40;0.68;;;19.70;91.70;;;;;;1973278;73;21059;-75
2021/05/30 07:55:23;;;;;;;1.30;0.82;;;19.60;92.50;;;;;;1973040;73;21059;-74
2021/05/30 07:57:49;;;;;;;1.00;0.60;;;19.70;93.40;;;;;;1973323;73;21080;-74
2021/05/30 08:00:16;;;;;;;0.70;0.70;;;19.20;91.10;;;;;;1973065;73;21067;-74
2021/05/30 08:02:42;;;;;;;0.93;0.57;;;19.10;92.20;;;;;;1973077;73;21122;-74
2021/05/30 08:05:10;;;;;;;1.10;0.78;;;19.60;91.70;;;;;;1973267;73;21523;-74
2021/05/30 08:07:36;;;;;;;0.80;0.80;;;19.50;92.30;;;;;;1973236;71;21224;-74
2021/05/30 08:10:02;;;;;;;0.60;0.60;;;20.10;91.60;;;;;;1973386;73;21347;-74
2021/05/30 08:12:29;;;;;;;2.35;0.80;;;19.90;93.30;;;;;;1973091;73;21456;-75
2021/05/30 08:14:55;;;;;;;1.62;0.50;;;19.30;94.50;;;;;;1973305;73;21100;-74
2021/05/30 08:17:21;;;;;;;0.70;0.70;;;19.10;94.90;;;;;;1973095;73;21059;-74
2021/05/30 08:19:47;;;;;;;1.32;0.90;;;19.30;94.80;;;;;;1973218;73;21071;-74
2021/05/30 08:22:13;;;;;;;0.72;0.72;;;19.00;93.40;;;;;;1973091;73;21135;-74
2021/05/30 08:24:41;;;;;;;0.98;0.70;;;18.80;93.10;;;;;;1973271;73;21095;-74
2021/05/30 08:27:07;;;;;;;5.03;0.90;;;18.80;93.50;;;;;;1973064;72;21499;-74
2021/05/30 08:29:33;;;;;;;0.82;0.68;;;18.90;93.00;;;;;;1973262;73;21552;-74
2021/05/30 08:32:01;;;;;;;0.80;0.75;;;19.00;92.50;;;;;;1973081;73;21489;-74
2021/05/30 08:34:28;;;;;;;1.12;0.80;;;18.90;92.60;;;;;;1973415;73;21099;-74
2021/05/30 08:36:55;;;;;;;0.78;0.70;;;19.10;90.80;;;;;;1973410;73;21165;-74
2021/05/30 08:39:21;;;;;;;2.17;0.95;;;18.90;90.00;;;;;;1973143;73;21162;-73
2021/05/30 08:41:47;;;;;;;2.27;1.00;;;18.90;87.60;;;;;;1973325;73;21174;-74
2021/05/30 08:44:13;;;;;;;2.47;0.85;;;18.90;91.30;;;;;;1973110;73;21075;-74
2021/05/30 08:46:39;;;;;;;2.47;0.95;;;19.30;91.60;;;;;;1973279;73;21084;-74
2021/05/30 08:49:05;;;;;;;1.27;1.00;;;19.90;91.70;;;;;;1973047;73;21075;-73
2021/05/30 08:51:32;;;;;;;3.20;0.82;;;20.20;91.40;;;;;;1973273;73;21095;-73
2021/05/30 08:53:58;;;;;;;0.90;0.72;;;19.60;89.10;;;;;;1973224;73;21133;-74
2021/05/30 08:56:24;;;;;;;2.20;1.10;;;18.90;91.20;;;;;;1973106;73;21530;-73
2021/05/30 08:58:50;;;;;;;1.20;0.70;;;19.00;90.30;;;;;;1973302;73;21526;-73
2021/05/30 09:01:16;;;;;;;0.70;0.70;;;19.40;88.60;;;;;;1973239;73;21447;-74
2021/05/30 09:03:42;;;;;;;1.07;0.70;;;19.30;85.20;;;;;;1973355;73;21656;-74
2021/05/30 09:06:09;;;;;;;1.45;0.80;;;19.10;86.60;;;;;;1973126;73;21510;-73
2021/05/30 09:08:35;;;;;;;1.15;0.80;;;19.30;90.40;;;;;;1973297;73;21024;-73
2021/05/30 09:11:01;;;;;;;3.30;0.95;;;19.40;91.30;;;;;;1973096;73;21149;-72
2021/05/30 09:13:28;;;;;;;1.00;0.90;;;19.90;90.90;;;;;;1973329;73;21093;-72
2021/05/30 09:16:07;;;;;;;2.10;1.10;;;20.00;88.00;;;;;;1973301;73;21601;-72
2021/05/30 09:18:22;;;;;;;1.50;0.70;;;19.80;89.30;;;;;;1976482;71;21086;-72
2021/05/30 09:20:48;;;;;;;4.37;1.12;;;19.80;89.40;;;;;;1973600;73;21073;-72
2021/05/30 09:23:14;;;;;;;0.90;0.90;;;20.10;89.60;;;;;;1973186;73;21063;-73
2021/05/30 09:25:40;;;;;;;1.50;0.98;;;20.20;88.40;;;;;;1973399;73;21074;-73
2021/05/30 09:28:06;;;;;;;1.70;0.98;;;19.90;89.00;;;;;;1973185;73;21144;-72
2021/05/30 09:30:34;;;;;;;4.92;1.40;;;20.00;89.50;;;;;;1973274;73;21457;-73
2021/05/30 09:33:05;;;;;;;0.62;0.60;;;19.80;87.10;;;;;;1973169;72;21141;-73
2021/05/30 09:35:28;;;;;;;1.02;0.85;;;20.20;87.20;;;;;;1973215;71;21087;-73
2021/05/30 09:37:54;;;;;;;1.80;0.95;;;19.90;82.60;;;;;;1973140;73;21141;-73
2021/05/30 09:40:20;;;;;;;0.70;0.70;;;19.40;86.80;;;;;;1973119;73;21071;-73
2021/05/30 09:42:47;;;;;;;1.25;0.82;;;19.10;87.50;;;;;;1973277;73;21083;-73
2021/05/30 09:45:13;;;;;;;1.32;0.85;;;19.60;85.90;;;;;;1973156;73;21102;-73
2021/05/30 09:47:41;;;;;;;1.05;0.90;;;20.10;84.50;;;;;;1973261;73;21128;-73
2021/05/30 09:50:07;;;;;;;2.62;1.00;;;20.30;85.90;;;;;;1973295;73;21028;-73
2021/05/30 09:52:33;;;;;;;0.65;0.65;;;21.10;84.40;;;;;;1973099;72;21073;-73
2021/05/30 09:54:59;;;;;;;3.10;1.05;;;21.30;83.50;;;;;;1979992;72;21063;-73
2021/05/30 09:57:25;;;;;;;0.72;0.72;;;20.60;82.80;;;;;;1974382;72;21071;-73
2021/05/30 09:59:51;;;;;;;1.02;0.80;;;20.70;83.40;;;;;;1973105;73;21054;-74
2021/05/30 10:02:17;;;;;;;1.75;1.00;;;20.50;81.00;;;;;;1976794;72;21153;-73
2021/05/30 10:04:43;;;;;;;1.00;0.90;;;20.40;81.10;;;;;;1973116;72;21114;-73
2021/05/30 10:07:10;;;;;;;1.17;0.80;;;20.50;82.30;;;;;;1973292;73;21157;-74
2021/05/30 10:09:36;;;;;;;1.77;1.00;;;19.50;82.20;;;;;;1972047;72;21133;-73
2021/05/30 10:12:02;;;;;;;1.77;0.90;;;19.60;82.40;;;;;;1973130;73;21067;-74
2021/05/30 10:14:28;;;;;;;4.58;1.00;;;19.60;82.80;;;;;;1973235;73;21189;-73
2021/05/30 10:16:54;;;;;;;0.88;0.78;;;20.30;84.50;;;;;;1973299;73;21484;-73
2021/05/30 10:19:20;;;;;;;1.65;0.90;;;19.90;81.30;;;;;;1973004;73;21496;-74
2021/05/30 10:21:46;;;;;;;2.02;1.02;;;20.50;82.10;;;;;;1973047;73;21552;-73
2021/05/30 10:24:12;;;;;;;4.35;1.35;;;20.60;81.70;;;;;;1973277;73;21494;-73
2021/05/30 10:26:39;;;;;;;3.10;0.98;;;20.70;82.40;;;;;;1973147;73;21463;-73
2021/05/30 10:29:05;;;;;;;2.17;0.93;;;21.00;80.90;;;;;;1973130;73;21067;-73
2021/05/30 10:31:31;;;;;;;1.10;0.80;;;20.40;82.80;;;;;;1973208;73;21088;-73
2021/05/30 10:33:57;;;;;;;2.55;0.98;;;20.20;82.50;;;;;;1973244;73;21125;-74
2021/05/30 10:36:23;;;;;;;1.25;1.02;;;19.70;84.80;;;;;;1973245;73;21204;-73
2021/05/30 10:38:50;;;;;;;1.25;1.10;;;19.80;87.70;;;;;;1973331;73;21091;-73
2021/05/30 10:41:16;;;;;;;1.40;0.70;;;19.60;84.00;;;;;;1973081;73;21036;-74
2021/05/30 10:43:42;;;;;;;3.30;1.00;;;19.70;84.30;;;;;;1973186;73;21153;-74
2021/05/30 10:46:08;;;;;;;2.65;0.90;;;19.60;82.80;;;;;;1973194;73;21084;-74
2021/05/30 10:48:34;;;;;;;3.55;1.02;;;19.30;86.10;;;;;;1972968;73;21148;-74
2021/05/30 10:53:34;;;;;;;1.25;0.82;;;19.50;85.80;;;;;;1973074;73;21495;-74
2021/05/30 10:56:00;;;;;;;4.58;1.12;;;19.70;84.40;;;;;;1972973;73;21067;-74
2021/05/30 10:58:27;;;;;;;2.33;0.90;;;19.60;83.20;;;;;;1973153;73;21088;-74
2021/05/30 11:00:53;;;;;;;5.45;1.22;;;19.60;83.70;;;;;;1973008;73;21179;-73
2021/05/30 11:03:19;;;;;;;1.80;0.90;;;19.80;84.50;;;;;;1973340;73;21107;-74
2021/05/30 11:05:45;;;;;;;1.05;0.90;;;20.20;80.80;;;;;;1973154;73;21527;-73
2021/05/30 11:08:11;;;;;;;0.75;0.75;;;20.20;79.70;;;;;;1973249;73;21087;-73
2021/05/30 11:10:38;;;;;;;7.35;1.27;;;20.40;78.70;;;;;;1972951;73;21059;-74
2021/05/30 11:13:04;;;;;;;1.82;0.93;;;20.40;80.00;;;;;;1973260;73;21131;-73
2021/05/30 11:15:30;;;;;;;1.75;1.12;;;20.60;77.30;;;;;;1973146;73;21059;-74
2021/05/30 11:17:56;;;;;;;2.85;0.70;;;20.10;78.70;;;;;;1973548;73;21032;-73
2021/05/30 11:20:22;;;;;;;2.80;0.78;;;20.40;75.90;;;;;;1973100;73;21063;-74
2021/05/30 11:22:48;;;;;;;2.45;1.05;;;20.30;77.60;;;;;;1973215;73;21146;-75
2021/05/30 11:25:14;;;;;;;1.02;0.88;;;19.90;76.90;;;;;;1973103;73;21075;-74
2021/05/30 11:27:41;;;;;;;3.58;1.55;;;20.50;77.40;;;;;;1973230;73;21235;-73
2021/05/30 11:30:07;;;;;;;1.50;0.80;;;21.40;76.00;;;;;;1973274;73;21480;-73
2021/05/30 11:32:33;;;;;;;2.40;1.17;;;20.80;74.80;;;;;;1973119;73;21579;-73
2021/05/30 11:34:59;;;;;;;1.67;1.20;;;20.80;77.00;;;;;;1973136;73;21464;-73
2021/05/30 11:37:25;;;;;;;0.90;0.90;;;20.90;73.60;;;;;;1973143;73;21530;-73
2021/05/30 11:39:51;;;;;;;5.67;1.07;;;21.20;75.00;;;;;;1973086;73;21435;-73
2021/05/30 11:42:17;;;;;;;4.20;0.98;;;21.10;73.90;;;;;;1973063;73;21125;-73
2021/05/30 11:44:43;;;;;;;1.77;0.85;;;21.40;73.40;;;;;;1973149;73;21201;-74
2021/05/30 11:47:10;;;;;;;1.17;1.00;;;21.80;73.20;;;;;;1972929;73;21177;-73
2021/05/30 11:49:36;;;;;;;2.62;1.27;;;22.40;70.70;;;;;;1972832;72;21039;-73
2021/05/30 11:52:02;;;;;;;1.77;0.82;;;22.90;68.80;;;;;;1972892;73;21080;-73
2021/05/30 11:54:28;;;;;;;1.82;0.90;;;22.30;71.10;;;;;;1973030;73;21088;-72
2021/05/30 11:56:54;;;;;;;0.95;0.80;;;22.90;69.20;;;;;;1972944;73;21157;-72
2021/05/30 11:59:20;;;;;;;1.20;0.88;;;22.50;66.10;;;;;;1972891;73;21024;-73
2021/05/30 12:01:48;;;;;;;0.95;0.60;;;21.90;66.40;;;;;;1976028;72;21603;-72
2021/05/30 12:04:14;;;;;;;1.95;0.85;;;21.70;66.30;;;;;;1974142;72;21056;-72
2021/05/30 12:06:40;;;;;;;1.05;0.95;;;21.70;68.80;;;;;;1972713;73;21149;-73
2021/05/30 12:09:06;;;;;;;5.97;0.70;;;21.70;69.00;;;;;;1972799;73;21054;-73
2021/05/30 12:11:32;;;;;;;1.20;0.70;;;21.50;70.00;;;;;;1972774;73;21072;-73
2021/05/30 12:13:59;;;;;;;1.15;0.90;;;21.70;69.70;;;;;;1972847;73;21059;-72
2021/05/30 12:16:25;;;;;;;1.22;0.65;;;22.10;67.80;;;;;;1977623;72;21121;-72
2021/05/30 12:18:51;;;;;;;1.82;0.93;;;21.90;66.70;;;;;;1975198;72;21140;-74
2021/05/30 12:21:17;;;;;;;2.33;1.02;;;22.30;69.00;;;;;;1972912;72;21146;-74
2021/05/30 12:23:43;;;;;;;9.25;0.85;;;22.60;68.20;;;;;;1972774;73;21080;-74
2021/05/30 12:26:09;;;;;;;3.65;1.10;;;22.80;66.20;;;;;;1972798;73;21141;-74
2021/05/30 12:28:36;;;;;;;1.67;0.78;;;23.30;66.10;;;;;;1972742;73;21067;-73
2021/05/30 12:31:02;;;;;;;1.62;0.93;;;24.10;61.80;;;;;;1972927;73;21059;-75
2021/05/30 12:33:28;;;;;;;0.70;0.70;;;24.80;62.30;;;;;;1972756;73;21049;-75
2021/05/30 12:35:54;;;;;;;2.50;0.78;;;24.10;60.50;;;;;;1972678;73;21115;-74
2021/05/30 12:38:20;;;;;;;2.58;0.60;;;22.40;64.00;;;;;;1972730;73;21059;-74
2021/05/30 12:40:46;;;;;;;1.22;0.70;;;21.40;63.90;;;;;;1972731;73;21128;-74
2021/05/30 12:43:13;;;;;;;1.57;0.80;;;21.40;66.70;;;;;;1973139;73;21117;-74
2021/05/30 12:45:40;;;;;;;0.90;0.90;;;22.40;65.40;;;;;;1973023;73;21083;-74